sensor_id;sensor_type;location;lat;lon;timestamp;temperature;humidity
5457;DHT22;2751;49.802;9.944;2022-07-29T00:01:48;22.10;99.90
5457;DHT22;2751;49.802;9.944;2022-07-29T00:04:19;22.10;99.90
5457;DHT22;2751;49.802;9.944;2022-07-29T00:06:46;22.00;99.90
5457;DHT22;2751;49.802;9.944;2022-07-29T00:09:13;21.90;99.90
5457;DHT22;2751;49.802;9.944;2022-07-29T00:11:40;21.80;99.90
5457;DHT22;2751;49.802;9.944;2022-07-29T00:14:06;21.70;99.90
5457;DHT22;2751;49.802;9.944;2022-07-29T00:16:34;21.60;99.90
5457;DHT22;2751;49.802;9.944;2022-07-29T00:19:00;21.50;99.90
5457;DHT22;2751;49.802;9.944;2022-07-29T00:21:29;21.50;99.90
5457;DHT22;2751;49.802;9.944;2022-07-29T00:23:56;21.40;99.90
5457;DHT22;2751;49.802;9.944;2022-07-29T00:26:23;21.30;99.90
5457;DHT22;2751;49.802;9.944;2022-07-29T00:28:50;21.20;99.90
5457;DHT22;2751;49.802;9.944;2022-07-29T00:31:17;21.20;99.90
5457;DHT22;2751;49.802;9.944;2022-07-29T00:33:44;21.20;99.90
5457;DHT22;2751;49.802;9.944;2022-07-29T00:36:11;21.10;99.90
5457;DHT22;2751;49.802;9.944;2022-07-29T00:38:38;21.10;99.90
5457;DHT22;2751;49.802;9.944;2022-07-29T00:41:07;21.00;99.90
5457;DHT22;2751;49.802;9.944;2022-07-29T00:43:33;21.00;99.90
5457;DHT22;2751;49.802;9.944;2022-07-29T00:46:00;21.00;99.90
5457;DHT22;2751;49.802;9.944;2022-07-29T00:48:27;21.00;99.90
5457;DHT22;2751;49.802;9.944;2022-07-29T00:50:55;20.90;99.90
5457;DHT22;2751;49.802;9.944;2022-07-29T00:53:22;20.90;99.90
5457;DHT22;2751;49.802;9.944;2022-07-29T00:55:52;20.90;99.90
5457;DHT22;2751;49.802;9.944;2022-07-29T00:58:20;20.80;99.90
5457;DHT22;2751;49.802;9.944;2022-07-29T01:00:46;20.80;99.90
5457;DHT22;2751;49.802;9.944;2022-07-29T01:03:13;20.80;99.90
5457;DHT22;2751;49.802;9.944;2022-07-29T01:05:41;20.70;99.90
5457;DHT22;2751;49.802;9.944;2022-07-29T01:08:11;20.70;99.90
5457;DHT22;2751;49.802;9.944;2022-07-29T01:10:39;20.70;99.90
5457;DHT22;2751;49.802;9.944;2022-07-29T01:13:08;20.70;99.90
5457;DHT22;2751;49.802;9.944;2022-07-29T01:15:42;20.60;99.90
5457;DHT22;2751;49.802;9.944;2022-07-29T01:18:16;20.60;99.90
5457;DHT22;2751;49.802;9.944;2022-07-29T01:21:00;20.50;99.90
5457;DHT22;2751;49.802;9.944;2022-07-29T01:23:46;20.50;99.90
5457;DHT22;2751;49.802;9.944;2022-07-29T01:26:41;20.50;99.90
5457;DHT22;2751;49.802;9.944;2022-07-29T01:29:18;20.40;99.90
5457;DHT22;2751;49.802;9.944;2022-07-29T01:31:54;20.40;99.90
5457;DHT22;2751;49.802;9.944;2022-07-29T01:34:25;20.40;99.90
5457;DHT22;2751;49.802;9.944;2022-07-29T01:37:00;20.40;99.90
5457;DHT22;2751;49.802;9.944;2022-07-29T01:39:32;20.30;99.90
5457;DHT22;2751;49.802;9.944;2022-07-29T01:42:09;20.30;99.90
5457;DHT22;2751;49.802;9.944;2022-07-29T01:44:46;20.20;99.90
5457;DHT22;2751;49.802;9.944;2022-07-29T01:47:19;20.20;99.90
5457;DHT22;2751;49.802;9.944;2022-07-29T01:49:50;20.20;99.90
5457;DHT22;2751;49.802;9.944;2022-07-29T01:52:21;20.10;99.90
5457;DHT22;2751;49.802;9.944;2022-07-29T01:54:53;20.10;99.90
5457;DHT22;2751;49.802;9.944;2022-07-29T01:57:26;20.00;99.90
5457;DHT22;2751;49.802;9.944;2022-07-29T01:59:57;19.90;99.90
5457;DHT22;2751;49.802;9.944;2022-07-29T02:02:26;19.90;99.90
5457;DHT22;2751;49.802;9.944;2022-07-29T02:04:55;19.90;99.90
5457;DHT22;2751;49.802;9.944;2022-07-29T02:07:24;19.80;99.90
5457;DHT22;2751;49.802;9.944;2022-07-29T02:09:53;19.80;99.90
5457;DHT22;2751;49.802;9.944;2022-07-29T02:12:22;19.80;99.90
5457;DHT22;2751;49.802;9.944;2022-07-29T02:14:52;19.70;99.90
5457;DHT22;2751;49.802;9.944;2022-07-29T02:17:25;19.60;99.90
5457;DHT22;2751;49.802;9.944;2022-07-29T02:19:56;19.60;99.90
5457;DHT22;2751;49.802;9.944;2022-07-29T02:22:24;19.60;99.90
5457;DHT22;2751;49.802;9.944;2022-07-29T02:24:53;19.50;99.90
5457;DHT22;2751;49.802;9.944;2022-07-29T02:27:20;19.60;99.90
5457;DHT22;2751;49.802;9.944;2022-07-29T02:29:50;19.60;99.90
5457;DHT22;2751;49.802;9.944;2022-07-29T02:32:18;19.60;99.90
5457;DHT22;2751;49.802;9.944;2022-07-29T02:34:47;19.60;99.90
5457;DHT22;2751;49.802;9.944;2022-07-29T02:37:16;19.60;99.90
5457;DHT22;2751;49.802;9.944;2022-07-29T02:39:45;19.60;99.90
5457;DHT22;2751;49.802;9.944;2022-07-29T02:42:14;19.60;99.90
5457;DHT22;2751;49.802;9.944;2022-07-29T02:44:42;19.50;99.90
5457;DHT22;2751;49.802;9.944;2022-07-29T02:47:13;19.50;99.90
5457;DHT22;2751;49.802;9.944;2022-07-29T02:49:52;19.50;99.90
5457;DHT22;2751;49.802;9.944;2022-07-29T02:52:24;19.50;99.90
5457;DHT22;2751;49.802;9.944;2022-07-29T02:54:55;19.40;99.90
5457;DHT22;2751;49.802;9.944;2022-07-29T02:57:30;19.40;99.90
5457;DHT22;2751;49.802;9.944;2022-07-29T03:00:00;19.50;99.90
5457;DHT22;2751;49.802;9.944;2022-07-29T03:02:34;19.40;99.90
5457;DHT22;2751;49.802;9.944;2022-07-29T03:05:04;19.40;99.90
5457;DHT22;2751;49.802;9.944;2022-07-29T03:07:34;19.50;99.90
5457;DHT22;2751;49.802;9.944;2022-07-29T03:10:02;19.50;99.90
5457;DHT22;2751;49.802;9.944;2022-07-29T03:12:33;19.50;99.90
5457;DHT22;2751;49.802;9.944;2022-07-29T03:15:01;19.50;99.90
5457;DHT22;2751;49.802;9.944;2022-07-29T03:17:30;19.50;99.90
5457;DHT22;2751;49.802;9.944;2022-07-29T03:19:58;19.50;99.90
5457;DHT22;2751;49.802;9.944;2022-07-29T03:22:27;19.40;99.90
5457;DHT22;2751;49.802;9.944;2022-07-29T03:24:54;19.40;99.90
5457;DHT22;2751;49.802;9.944;2022-07-29T03:27:21;19.30;99.90
5457;DHT22;2751;49.802;9.944;2022-07-29T03:29:48;19.30;99.90
5457;DHT22;2751;49.802;9.944;2022-07-29T03:32:15;19.30;99.90
5457;DHT22;2751;49.802;9.944;2022-07-29T03:34:42;19.30;99.90
5457;DHT22;2751;49.802;9.944;2022-07-29T03:37:09;19.30;99.90
5457;DHT22;2751;49.802;9.944;2022-07-29T03:39:40;19.20;99.90
5457;DHT22;2751;49.802;9.944;2022-07-29T03:42:10;19.20;99.90
5457;DHT22;2751;49.802;9.944;2022-07-29T03:44:39;19.20;99.90
5457;DHT22;2751;49.802;9.944;2022-07-29T03:47:08;19.20;99.90
5457;DHT22;2751;49.802;9.944;2022-07-29T03:49:36;19.30;99.90
5457;DHT22;2751;49.802;9.944;2022-07-29T03:52:04;19.30;99.90
5457;DHT22;2751;49.802;9.944;2022-07-29T03:54:31;19.30;99.90
5457;DHT22;2751;49.802;9.944;2022-07-29T03:57:01;19.30;99.90
5457;DHT22;2751;49.802;9.944;2022-07-29T03:59:30;19.30;99.90
5457;DHT22;2751;49.802;9.944;2022-07-29T04:02:00;19.30;99.90
5457;DHT22;2751;49.802;9.944;2022-07-29T04:04:28;19.30;99.90
5457;DHT22;2751;49.802;9.944;2022-07-29T04:06:55;19.30;99.90
5457;DHT22;2751;49.802;9.944;2022-07-29T04:09:22;19.30;99.90
5457;DHT22;2751;49.802;9.944;2022-07-29T04:11:49;19.30;99.90
5457;DHT22;2751;49.802;9.944;2022-07-29T04:14:18;19.40;99.90
5457;DHT22;2751;49.802;9.944;2022-07-29T04:16:45;19.40;99.90
5457;DHT22;2751;49.802;9.944;2022-07-29T04:19:13;19.40;99.90
5457;DHT22;2751;49.802;9.944;2022-07-29T04:21:40;19.30;99.90
5457;DHT22;2751;49.802;9.944;2022-07-29T04:24:08;19.30;99.90
5457;DHT22;2751;49.802;9.944;2022-07-29T04:26:35;19.40;99.90
5457;DHT22;2751;49.802;9.944;2022-07-29T04:29:02;19.40;99.90
5457;DHT22;2751;49.802;9.944;2022-07-29T04:31:30;19.40;99.90
5457;DHT22;2751;49.802;9.944;2022-07-29T04:33:57;19.40;99.90
5457;DHT22;2751;49.802;9.944;2022-07-29T04:36:24;19.40;99.90
5457;DHT22;2751;49.802;9.944;2022-07-29T04:38:51;19.40;99.90
5457;DHT22;2751;49.802;9.944;2022-07-29T04:41:17;19.30;99.90
5457;DHT22;2751;49.802;9.944;2022-07-29T04:43:44;19.30;99.90
5457;DHT22;2751;49.802;9.944;2022-07-29T04:46:11;19.30;99.90
5457;DHT22;2751;49.802;9.944;2022-07-29T04:48:39;19.30;99.90
5457;DHT22;2751;49.802;9.944;2022-07-29T04:51:06;19.30;99.90
5457;DHT22;2751;49.802;9.944;2022-07-29T04:53:33;19.30;99.90
5457;DHT22;2751;49.802;9.944;2022-07-29T04:56:00;19.30;99.90
5457;DHT22;2751;49.802;9.944;2022-07-29T04:58:27;19.30;99.90
5457;DHT22;2751;49.802;9.944;2022-07-29T05:00:54;19.30;99.90
5457;DHT22;2751;49.802;9.944;2022-07-29T05:03:21;19.30;99.90
5457;DHT22;2751;49.802;9.944;2022-07-29T05:05:49;19.30;99.90
5457;DHT22;2751;49.802;9.944;2022-07-29T05:08:16;19.30;99.90
5457;DHT22;2751;49.802;9.944;2022-07-29T05:10:43;19.30;99.90
5457;DHT22;2751;49.802;9.944;2022-07-29T05:13:10;19.40;99.90
5457;DHT22;2751;49.802;9.944;2022-07-29T05:15:37;19.40;99.90
5457;DHT22;2751;49.802;9.944;2022-07-29T05:18:04;19.50;99.90
5457;DHT22;2751;49.802;9.944;2022-07-29T05:20:31;19.60;99.90
5457;DHT22;2751;49.802;9.944;2022-07-29T05:23:01;19.70;99.90
5457;DHT22;2751;49.802;9.944;2022-07-29T05:25:29;19.80;99.90
5457;DHT22;2751;49.802;9.944;2022-07-29T05:27:57;20.00;99.90
5457;DHT22;2751;49.802;9.944;2022-07-29T05:30:24;20.20;99.90
5457;DHT22;2751;49.802;9.944;2022-07-29T05:32:51;20.40;99.90
5457;DHT22;2751;49.802;9.944;2022-07-29T05:35:18;20.70;99.90
5457;DHT22;2751;49.802;9.944;2022-07-29T05:37:45;20.80;99.90
5457;DHT22;2751;49.802;9.944;2022-07-29T05:40:13;20.90;99.90
5457;DHT22;2751;49.802;9.944;2022-07-29T05:42:40;21.20;99.90
5457;DHT22;2751;49.802;9.944;2022-07-29T05:45:08;21.40;99.90
5457;DHT22;2751;49.802;9.944;2022-07-29T05:47:35;21.50;99.90
5457;DHT22;2751;49.802;9.944;2022-07-29T05:50:02;21.90;99.90
5457;DHT22;2751;49.802;9.944;2022-07-29T05:52:29;21.70;99.90
5457;DHT22;2751;49.802;9.944;2022-07-29T05:54:56;21.60;99.90
5457;DHT22;2751;49.802;9.944;2022-07-29T05:57:25;21.70;99.90
5457;DHT22;2751;49.802;9.944;2022-07-29T05:59:51;21.70;99.90
5457;DHT22;2751;49.802;9.944;2022-07-29T06:02:18;22.00;99.90
5457;DHT22;2751;49.802;9.944;2022-07-29T06:04:45;22.00;99.90
5457;DHT22;2751;49.802;9.944;2022-07-29T06:07:12;22.00;99.90
5457;DHT22;2751;49.802;9.944;2022-07-29T06:09:39;22.00;99.90
5457;DHT22;2751;49.802;9.944;2022-07-29T06:12:06;22.10;99.90
5457;DHT22;2751;49.802;9.944;2022-07-29T06:14:35;22.20;99.90
5457;DHT22;2751;49.802;9.944;2022-07-29T06:17:03;22.20;99.90
5457;DHT22;2751;49.802;9.944;2022-07-29T06:19:30;22.20;99.90
5457;DHT22;2751;49.802;9.944;2022-07-29T06:21:57;22.30;99.90
5457;DHT22;2751;49.802;9.944;2022-07-29T06:24:24;22.60;99.90
5457;DHT22;2751;49.802;9.944;2022-07-29T06:26:51;22.70;99.90
5457;DHT22;2751;49.802;9.944;2022-07-29T06:29:18;22.70;99.90
5457;DHT22;2751;49.802;9.944;2022-07-29T06:31:46;22.70;99.90
5457;DHT22;2751;49.802;9.944;2022-07-29T06:34:13;22.70;99.90
5457;DHT22;2751;49.802;9.944;2022-07-29T06:36:40;22.80;99.90
5457;DHT22;2751;49.802;9.944;2022-07-29T06:39:16;22.90;99.90
5457;DHT22;2751;49.802;9.944;2022-07-29T06:41:48;22.90;99.90
5457;DHT22;2751;49.802;9.944;2022-07-29T06:44:16;23.00;99.90
5457;DHT22;2751;49.802;9.944;2022-07-29T06:46:43;23.10;99.90
5457;DHT22;2751;49.802;9.944;2022-07-29T06:49:11;23.20;99.90
5457;DHT22;2751;49.802;9.944;2022-07-29T06:51:39;23.30;99.90
5457;DHT22;2751;49.802;9.944;2022-07-29T06:54:06;23.20;99.90
5457;DHT22;2751;49.802;9.944;2022-07-29T06:56:34;23.10;99.90
5457;DHT22;2751;49.802;9.944;2022-07-29T06:59:03;23.20;99.90
5457;DHT22;2751;49.802;9.944;2022-07-29T07:01:29;23.40;99.90
5457;DHT22;2751;49.802;9.944;2022-07-29T07:03:56;23.50;99.90
5457;DHT22;2751;49.802;9.944;2022-07-29T07:06:25;23.70;99.90
5457;DHT22;2751;49.802;9.944;2022-07-29T07:08:51;24.00;99.90
5457;DHT22;2751;49.802;9.944;2022-07-29T07:11:18;24.10;99.90
5457;DHT22;2751;49.802;9.944;2022-07-29T07:13:45;24.30;99.90
5457;DHT22;2751;49.802;9.944;2022-07-29T07:16:12;24.60;99.90
5457;DHT22;2751;49.802;9.944;2022-07-29T07:18:39;24.70;99.90
5457;DHT22;2751;49.802;9.944;2022-07-29T07:21:06;25.00;99.90
5457;DHT22;2751;49.802;9.944;2022-07-29T07:23:34;25.10;99.90
5457;DHT22;2751;49.802;9.944;2022-07-29T07:26:01;25.40;99.90
5457;DHT22;2751;49.802;9.944;2022-07-29T07:28:28;25.70;99.90
5457;DHT22;2751;49.802;9.944;2022-07-29T07:30:55;26.00;99.90
5457;DHT22;2751;49.802;9.944;2022-07-29T07:33:22;26.20;99.90
5457;DHT22;2751;49.802;9.944;2022-07-29T07:35:50;26.30;99.90
5457;DHT22;2751;49.802;9.944;2022-07-29T07:38:17;26.40;99.90
5457;DHT22;2751;49.802;9.944;2022-07-29T07:40:45;26.40;99.90
5457;DHT22;2751;49.802;9.944;2022-07-29T07:43:12;26.40;99.90
5457;DHT22;2751;49.802;9.944;2022-07-29T07:45:39;26.20;99.90
5457;DHT22;2751;49.802;9.944;2022-07-29T07:48:06;26.10;99.90
5457;DHT22;2751;49.802;9.944;2022-07-29T07:50:35;26.30;99.90
5457;DHT22;2751;49.802;9.944;2022-07-29T07:53:03;26.70;99.90
5457;DHT22;2751;49.802;9.944;2022-07-29T07:55:29;27.20;99.90
5457;DHT22;2751;49.802;9.944;2022-07-29T07:57:58;27.30;99.90
5457;DHT22;2751;49.802;9.944;2022-07-29T08:00:25;27.50;99.90
5457;DHT22;2751;49.802;9.944;2022-07-29T08:02:52;27.50;99.90
5457;DHT22;2751;49.802;9.944;2022-07-29T08:05:19;27.10;99.90
5457;DHT22;2751;49.802;9.944;2022-07-29T08:07:46;26.90;99.90
5457;DHT22;2751;49.802;9.944;2022-07-29T08:10:13;27.10;99.90
5457;DHT22;2751;49.802;9.944;2022-07-29T08:13:03;27.40;99.90
5457;DHT22;2751;49.802;9.944;2022-07-29T08:15:30;27.30;99.90
5457;DHT22;2751;49.802;9.944;2022-07-29T08:17:57;27.20;99.90
5457;DHT22;2751;49.802;9.944;2022-07-29T08:20:24;27.50;99.90
5457;DHT22;2751;49.802;9.944;2022-07-29T08:22:51;27.90;99.90
5457;DHT22;2751;49.802;9.944;2022-07-29T08:25:19;28.30;99.90
5457;DHT22;2751;49.802;9.944;2022-07-29T08:27:46;28.60;99.90
5457;DHT22;2751;49.802;9.944;2022-07-29T08:30:15;29.10;99.90
5457;DHT22;2751;49.802;9.944;2022-07-29T08:32:42;29.10;99.90
5457;DHT22;2751;49.802;9.944;2022-07-29T08:35:09;29.20;99.90
5457;DHT22;2751;49.802;9.944;2022-07-29T08:37:36;29.40;99.90
5457;DHT22;2751;49.802;9.944;2022-07-29T08:40:03;29.40;99.90
5457;DHT22;2751;49.802;9.944;2022-07-29T08:42:31;29.90;99.90
5457;DHT22;2751;49.802;9.944;2022-07-29T08:44:58;31.00;99.90
5457;DHT22;2751;49.802;9.944;2022-07-29T08:47:27;30.90;99.90
5457;DHT22;2751;49.802;9.944;2022-07-29T08:49:54;30.00;99.90
5457;DHT22;2751;49.802;9.944;2022-07-29T08:52:25;29.30;99.90
5457;DHT22;2751;49.802;9.944;2022-07-29T08:54:53;29.70;99.90
5457;DHT22;2751;49.802;9.944;2022-07-29T08:57:20;31.10;99.90
5457;DHT22;2751;49.802;9.944;2022-07-29T08:59:50;31.30;99.90
5457;DHT22;2751;49.802;9.944;2022-07-29T09:02:20;30.60;99.90
5457;DHT22;2751;49.802;9.944;2022-07-29T09:04:48;30.50;99.90
5457;DHT22;2751;49.802;9.944;2022-07-29T09:07:18;30.00;99.90
5457;DHT22;2751;49.802;9.944;2022-07-29T09:09:45;29.80;99.90
5457;DHT22;2751;49.802;9.944;2022-07-29T09:12:12;29.40;99.90
5457;DHT22;2751;49.802;9.944;2022-07-29T09:14:40;29.10;99.90
5457;DHT22;2751;49.802;9.944;2022-07-29T09:17:07;29.10;99.90
5457;DHT22;2751;49.802;9.944;2022-07-29T09:19:36;29.20;99.90
5457;DHT22;2751;49.802;9.944;2022-07-29T09:22:06;29.60;99.90
5457;DHT22;2751;49.802;9.944;2022-07-29T09:24:39;29.20;99.90
5457;DHT22;2751;49.802;9.944;2022-07-29T09:27:21;29.00;99.90
5457;DHT22;2751;49.802;9.944;2022-07-29T09:29:56;28.60;99.90
5457;DHT22;2751;49.802;9.944;2022-07-29T09:32:23;29.10;99.90
5457;DHT22;2751;49.802;9.944;2022-07-29T09:34:52;29.10;99.90
5457;DHT22;2751;49.802;9.944;2022-07-29T09:37:40;28.90;99.90
5457;DHT22;2751;49.802;9.944;2022-07-29T09:40:12;28.70;99.90
5457;DHT22;2751;49.802;9.944;2022-07-29T09:42:39;28.50;99.90
5457;DHT22;2751;49.802;9.944;2022-07-29T09:45:07;28.40;99.90
5457;DHT22;2751;49.802;9.944;2022-07-29T09:47:42;28.50;99.90
5457;DHT22;2751;49.802;9.944;2022-07-29T09:50:11;28.20;99.90
5457;DHT22;2751;49.802;9.944;2022-07-29T09:52:48;28.10;99.90
5457;DHT22;2751;49.802;9.944;2022-07-29T09:55:15;28.00;99.90
5457;DHT22;2751;49.802;9.944;2022-07-29T09:57:42;27.90;99.90
5457;DHT22;2751;49.802;9.944;2022-07-29T10:00:11;27.80;99.90
5457;DHT22;2751;49.802;9.944;2022-07-29T10:02:39;27.90;99.90
5457;DHT22;2751;49.802;9.944;2022-07-29T10:05:16;28.10;99.90
5457;DHT22;2751;49.802;9.944;2022-07-29T10:07:47;28.20;99.90
5457;DHT22;2751;49.802;9.944;2022-07-29T10:10:19;28.40;99.90
5457;DHT22;2751;49.802;9.944;2022-07-29T10:12:52;28.40;99.90
5457;DHT22;2751;49.802;9.944;2022-07-29T10:15:21;28.30;99.90
5457;DHT22;2751;49.802;9.944;2022-07-29T10:17:49;28.20;99.90
5457;DHT22;2751;49.802;9.944;2022-07-29T10:20:16;28.10;99.90
5457;DHT22;2751;49.802;9.944;2022-07-29T10:22:43;27.80;99.90
5457;DHT22;2751;49.802;9.944;2022-07-29T10:25:14;27.50;99.90
5457;DHT22;2751;49.802;9.944;2022-07-29T10:27:42;27.40;99.90
5457;DHT22;2751;49.802;9.944;2022-07-29T10:30:10;27.20;99.90
5457;DHT22;2751;49.802;9.944;2022-07-29T10:32:57;27.20;99.90
5457;DHT22;2751;49.802;9.944;2022-07-29T10:35:39;27.00;99.90
5457;DHT22;2751;49.802;9.944;2022-07-29T10:38:21;26.90;99.90
5457;DHT22;2751;49.802;9.944;2022-07-29T10:41:00;27.00;99.90
5457;DHT22;2751;49.802;9.944;2022-07-29T10:43:47;27.30;99.90
5457;DHT22;2751;49.802;9.944;2022-07-29T10:46:14;28.50;99.90
5457;DHT22;2751;49.802;9.944;2022-07-29T10:49:05;29.50;99.90
5457;DHT22;2751;49.802;9.944;2022-07-29T10:51:57;29.90;99.90
5457;DHT22;2751;49.802;9.944;2022-07-29T10:54:51;30.00;99.90
5457;DHT22;2751;49.802;9.944;2022-07-29T10:57:26;30.10;99.90
5457;DHT22;2751;49.802;9.944;2022-07-29T11:02:53;29.70;99.90
5457;DHT22;2751;49.802;9.944;2022-07-29T11:05:21;29.80;99.90
5457;DHT22;2751;49.802;9.944;2022-07-29T11:08:21;29.60;99.90
5457;DHT22;2751;49.802;9.944;2022-07-29T11:10:50;30.20;99.90
5457;DHT22;2751;49.802;9.944;2022-07-29T11:13:49;32.70;99.90
5457;DHT22;2751;49.802;9.944;2022-07-29T11:16:18;35.00;99.90
5457;DHT22;2751;49.802;9.944;2022-07-29T11:19:18;36.00;99.90
5457;DHT22;2751;49.802;9.944;2022-07-29T11:21:46;37.20;99.90
5457;DHT22;2751;49.802;9.944;2022-07-29T11:24:16;36.80;99.90
5457;DHT22;2751;49.802;9.944;2022-07-29T11:26:43;35.70;99.90
5457;DHT22;2751;49.802;9.944;2022-07-29T11:29:19;34.40;99.90
5457;DHT22;2751;49.802;9.944;2022-07-29T11:31:49;34.00;99.90
5457;DHT22;2751;49.802;9.944;2022-07-29T11:34:22;35.90;99.90
5457;DHT22;2751;49.802;9.944;2022-07-29T11:37:15;37.90;1.00
5457;DHT22;2751;49.802;9.944;2022-07-29T11:39:43;38.90;1.00
5457;DHT22;2751;49.802;9.944;2022-07-29T11:42:36;39.70;1.00
5457;DHT22;2751;49.802;9.944;2022-07-29T11:45:07;40.60;1.00
5457;DHT22;2751;49.802;9.944;2022-07-29T11:47:36;41.60;1.00
5457;DHT22;2751;49.802;9.944;2022-07-29T11:50:06;42.40;1.00
5457;DHT22;2751;49.802;9.944;2022-07-29T11:52:33;42.00;1.00
5457;DHT22;2751;49.802;9.944;2022-07-29T11:55:05;42.20;1.00
5457;DHT22;2751;49.802;9.944;2022-07-29T11:57:34;41.80;1.00
5457;DHT22;2751;49.802;9.944;2022-07-29T12:00:02;42.10;1.00
5457;DHT22;2751;49.802;9.944;2022-07-29T12:02:40;41.60;1.00
5457;DHT22;2751;49.802;9.944;2022-07-29T12:05:08;38.90;1.00
5457;DHT22;2751;49.802;9.944;2022-07-29T12:07:37;37.40;99.90
5457;DHT22;2751;49.802;9.944;2022-07-29T12:10:05;36.70;99.90
5457;DHT22;2751;49.802;9.944;2022-07-29T12:12:32;36.40;99.90
5457;DHT22;2751;49.802;9.944;2022-07-29T12:15:11;36.70;99.90
5457;DHT22;2751;49.802;9.944;2022-07-29T12:17:39;36.70;99.90
5457;DHT22;2751;49.802;9.944;2022-07-29T12:20:07;38.00;99.90
5457;DHT22;2751;49.802;9.944;2022-07-29T12:22:36;37.20;99.90
5457;DHT22;2751;49.802;9.944;2022-07-29T12:25:06;36.30;99.90
5457;DHT22;2751;49.802;9.944;2022-07-29T12:27:34;35.30;99.90
5457;DHT22;2751;49.802;9.944;2022-07-29T12:30:05;34.30;99.90
5457;DHT22;2751;49.802;9.944;2022-07-29T12:32:34;33.40;99.90
5457;DHT22;2751;49.802;9.944;2022-07-29T12:35:07;33.00;99.90
5457;DHT22;2751;49.802;9.944;2022-07-29T12:37:35;32.80;99.90
5457;DHT22;2751;49.802;9.944;2022-07-29T12:40:04;32.40;99.90
5457;DHT22;2751;49.802;9.944;2022-07-29T12:42:33;32.10;99.90
5457;DHT22;2751;49.802;9.944;2022-07-29T12:45:03;32.00;99.90
5457;DHT22;2751;49.802;9.944;2022-07-29T12:47:31;31.70;99.90
5457;DHT22;2751;49.802;9.944;2022-07-29T12:50:10;31.20;99.90
5457;DHT22;2751;49.802;9.944;2022-07-29T12:52:37;30.90;99.90
5457;DHT22;2751;49.802;9.944;2022-07-29T12:55:05;30.70;99.90
5457;DHT22;2751;49.802;9.944;2022-07-29T12:57:35;30.40;99.90
5457;DHT22;2751;49.802;9.944;2022-07-29T13:00:12;30.30;99.90
5457;DHT22;2751;49.802;9.944;2022-07-29T13:02:40;30.00;99.90
5457;DHT22;2751;49.802;9.944;2022-07-29T13:05:10;29.80;99.90
5457;DHT22;2751;49.802;9.944;2022-07-29T13:07:38;29.60;99.90
5457;DHT22;2751;49.802;9.944;2022-07-29T13:10:14;29.30;99.90
5457;DHT22;2751;49.802;9.944;2022-07-29T13:13:05;29.00;99.90
5457;DHT22;2751;49.802;9.944;2022-07-29T13:15:34;28.90;99.90
5457;DHT22;2751;49.802;9.944;2022-07-29T13:18:01;28.80;99.90
5457;DHT22;2751;49.802;9.944;2022-07-29T13:20:29;28.50;99.90
5457;DHT22;2751;49.802;9.944;2022-07-29T13:22:57;28.30;99.90
5457;DHT22;2751;49.802;9.944;2022-07-29T13:25:26;28.10;99.90
5457;DHT22;2751;49.802;9.944;2022-07-29T13:27:53;28.00;99.90
5457;DHT22;2751;49.802;9.944;2022-07-29T13:30:22;28.00;99.90
5457;DHT22;2751;49.802;9.944;2022-07-29T13:32:50;27.80;99.90
5457;DHT22;2751;49.802;9.944;2022-07-29T13:35:17;27.50;99.90
5457;DHT22;2751;49.802;9.944;2022-07-29T13:37:46;27.40;99.90
5457;DHT22;2751;49.802;9.944;2022-07-29T13:40:13;27.20;99.90
5457;DHT22;2751;49.802;9.944;2022-07-29T13:42:41;27.10;99.90
5457;DHT22;2751;49.802;9.944;2022-07-29T13:45:10;27.00;99.90
5457;DHT22;2751;49.802;9.944;2022-07-29T13:47:37;26.80;99.90
5457;DHT22;2751;49.802;9.944;2022-07-29T13:50:07;26.70;99.90
5457;DHT22;2751;49.802;9.944;2022-07-29T13:52:35;26.60;99.90
5457;DHT22;2751;49.802;9.944;2022-07-29T13:55:05;26.40;99.90
5457;DHT22;2751;49.802;9.944;2022-07-29T13:57:32;26.30;99.90
5457;DHT22;2751;49.802;9.944;2022-07-29T13:59:59;26.10;99.90
5457;DHT22;2751;49.802;9.944;2022-07-29T14:02:26;25.70;99.90
5457;DHT22;2751;49.802;9.944;2022-07-29T14:04:53;25.30;81.30
5457;DHT22;2751;49.802;9.944;2022-07-29T14:07:21;24.80;95.30
5457;DHT22;2751;49.802;9.944;2022-07-29T14:09:48;24.50;99.90
5457;DHT22;2751;49.802;9.944;2022-07-29T14:12:17;24.20;99.90
5457;DHT22;2751;49.802;9.944;2022-07-29T14:14:44;24.10;99.90
5457;DHT22;2751;49.802;9.944;2022-07-29T14:17:11;24.20;99.90
5457;DHT22;2751;49.802;9.944;2022-07-29T14:19:38;24.20;99.90
5457;DHT22;2751;49.802;9.944;2022-07-29T14:22:05;24.20;99.90
5457;DHT22;2751;49.802;9.944;2022-07-29T14:24:33;24.20;99.90
5457;DHT22;2751;49.802;9.944;2022-07-29T14:27:00;24.20;99.90
5457;DHT22;2751;49.802;9.944;2022-07-29T14:29:28;24.30;99.90
5457;DHT22;2751;49.802;9.944;2022-07-29T14:31:55;24.40;99.90
5457;DHT22;2751;49.802;9.944;2022-07-29T14:34:22;24.50;99.90
5457;DHT22;2751;49.802;9.944;2022-07-29T14:36:49;24.50;99.90
5457;DHT22;2751;49.802;9.944;2022-07-29T14:39:15;24.50;99.90
5457;DHT22;2751;49.802;9.944;2022-07-29T14:41:43;24.50;99.90
5457;DHT22;2751;49.802;9.944;2022-07-29T14:44:09;24.50;99.90
5457;DHT22;2751;49.802;9.944;2022-07-29T14:46:38;24.50;99.90
5457;DHT22;2751;49.802;9.944;2022-07-29T14:49:05;24.50;99.90
5457;DHT22;2751;49.802;9.944;2022-07-29T14:51:32;24.50;99.90
5457;DHT22;2751;49.802;9.944;2022-07-29T14:53:59;24.50;99.90
5457;DHT22;2751;49.802;9.944;2022-07-29T14:56:26;24.50;99.90
5457;DHT22;2751;49.802;9.944;2022-07-29T14:58:55;24.40;99.90
5457;DHT22;2751;49.802;9.944;2022-07-29T15:01:22;24.30;99.90
5457;DHT22;2751;49.802;9.944;2022-07-29T15:03:51;24.20;99.90
5457;DHT22;2751;49.802;9.944;2022-07-29T15:06:18;24.00;99.90
5457;DHT22;2751;49.802;9.944;2022-07-29T15:08:45;23.90;99.90
5457;DHT22;2751;49.802;9.944;2022-07-29T15:11:12;23.70;99.90
5457;DHT22;2751;49.802;9.944;2022-07-29T15:13:38;23.60;99.90
5457;DHT22;2751;49.802;9.944;2022-07-29T15:16:06;23.50;99.90
5457;DHT22;2751;49.802;9.944;2022-07-29T15:18:33;23.40;99.90
5457;DHT22;2751;49.802;9.944;2022-07-29T15:21:01;23.30;99.90
5457;DHT22;2751;49.802;9.944;2022-07-29T15:23:28;23.20;99.90
5457;DHT22;2751;49.802;9.944;2022-07-29T15:25:55;23.10;99.90
5457;DHT22;2751;49.802;9.944;2022-07-29T15:28:22;23.00;99.90
5457;DHT22;2751;49.802;9.944;2022-07-29T15:30:49;22.80;99.90
5457;DHT22;2751;49.802;9.944;2022-07-29T15:33:15;22.50;99.90
5457;DHT22;2751;49.802;9.944;2022-07-29T15:35:43;22.20;99.90
5457;DHT22;2751;49.802;9.944;2022-07-29T15:38:11;22.00;99.90
5457;DHT22;2751;49.802;9.944;2022-07-29T15:40:38;21.90;99.90
5457;DHT22;2751;49.802;9.944;2022-07-29T15:43:07;21.80;99.90
5457;DHT22;2751;49.802;9.944;2022-07-29T15:45:37;21.70;99.90
5457;DHT22;2751;49.802;9.944;2022-07-29T15:48:04;21.60;99.90
5457;DHT22;2751;49.802;9.944;2022-07-29T15:50:32;21.60;99.90
5457;DHT22;2751;49.802;9.944;2022-07-29T15:52:59;21.60;99.90
5457;DHT22;2751;49.802;9.944;2022-07-29T15:55:27;21.70;99.90
5457;DHT22;2751;49.802;9.944;2022-07-29T15:57:54;21.70;99.90
5457;DHT22;2751;49.802;9.944;2022-07-29T16:00:21;21.80;1.00
5457;DHT22;2751;49.802;9.944;2022-07-29T16:02:49;21.90;1.00
5457;DHT22;2751;49.802;9.944;2022-07-29T16:05:16;21.90;1.00
5457;DHT22;2751;49.802;9.944;2022-07-29T16:07:43;21.80;92.70
5457;DHT22;2751;49.802;9.944;2022-07-29T16:10:10;21.90;1.00
5457;DHT22;2751;49.802;9.944;2022-07-29T16:12:38;21.90;99.90
5457;DHT22;2751;49.802;9.944;2022-07-29T16:15:06;22.00;1.00
5457;DHT22;2751;49.802;9.944;2022-07-29T16:17:34;22.00;99.90
5457;DHT22;2751;49.802;9.944;2022-07-29T16:20:01;22.10;1.00